sensor_id;sensor_type;location;lat;lon;timestamp;P1;durP1;ratioP1;P2;durP2;ratioP2
44078;SDS011;29744;49.078;12.878;2022-08-04T00:02:09;3.92;;;1.80;;
44078;SDS011;29744;49.078;12.878;2022-08-04T00:12:12;2.53;;;1.30;;
44078;SDS011;29744;49.078;12.878;2022-08-04T00:17:17;3.05;;;1.45;;
44078;SDS011;29744;49.078;12.878;2022-08-04T00:22:20;3.17;;;1.80;;
44078;SDS011;29744;49.078;12.878;2022-08-04T00:27:27;2.45;;;1.40;;
44078;SDS011;29744;49.078;12.878;2022-08-04T00:32:28;3.42;;;1.35;;
44078;SDS011;29744;49.078;12.878;2022-08-04T00:37:30;2.67;;;1.45;;
44078;SDS011;29744;49.078;12.878;2022-08-04T00:42:43;3.55;;;1.45;;
44078;SDS011;29744;49.078;12.878;2022-08-04T01:19:28;2.97;;;1.50;;
44078;SDS011;29744;49.078;12.878;2022-08-04T01:30:10;2.70;;;1.25;;
44078;SDS011;29744;49.078;12.878;2022-08-04T01:35:12;3.13;;;1.40;;
44078;SDS011;29744;49.078;12.878;2022-08-04T01:40:22;2.67;;;1.38;;
44078;SDS011;29744;49.078;12.878;2022-08-04T01:45:26;2.67;;;1.30;;
44078;SDS011;29744;49.078;12.878;2022-08-04T01:50:31;2.58;;;1.27;;
44078;SDS011;29744;49.078;12.878;2022-08-04T02:00:36;2.15;;;1.20;;
44078;SDS011;29744;49.078;12.878;2022-08-04T02:05:45;3.35;;;1.40;;
44078;SDS011;29744;49.078;12.878;2022-08-04T02:10:53;2.63;;;1.30;;
44078;SDS011;29744;49.078;12.878;2022-08-04T02:16:08;1.83;;;1.20;;
44078;SDS011;29744;49.078;12.878;2022-08-04T02:21:15;2.22;;;1.20;;
44078;SDS011;29744;49.078;12.878;2022-08-04T02:26:19;2.72;;;1.38;;
44078;SDS011;29744;49.078;12.878;2022-08-04T02:36:58;2.05;;;1.10;;
44078;SDS011;29744;49.078;12.878;2022-08-04T02:41:59;2.58;;;1.30;;
44078;SDS011;29744;49.078;12.878;2022-08-04T02:47:02;2.08;;;1.20;;
44078;SDS011;29744;49.078;12.878;2022-08-04T02:52:03;2.45;;;1.38;;
44078;SDS011;29744;49.078;12.878;2022-08-04T02:57:10;2.33;;;1.10;;
44078;SDS011;29744;49.078;12.878;2022-08-04T03:02:11;2.70;;;1.30;;
44078;SDS011;29744;49.078;12.878;2022-08-04T03:12:52;2.90;;;1.27;;
44078;SDS011;29744;49.078;12.878;2022-08-04T03:29:14;2.10;;;1.20;;
44078;SDS011;29744;49.078;12.878;2022-08-04T04:07:13;3.33;;;1.30;;
44078;SDS011;29744;49.078;12.878;2022-08-04T04:28:49;2.40;;;1.30;;
44078;SDS011;29744;49.078;12.878;2022-08-04T04:34:08;2.33;;;1.10;;
44078;SDS011;29744;49.078;12.878;2022-08-04T04:50:07;1.73;;;1.15;;
44078;SDS011;29744;49.078;12.878;2022-08-04T04:55:20;2.10;;;1.10;;
44078;SDS011;29744;49.078;12.878;2022-08-04T05:00:24;1.42;;;0.93;;
44078;SDS011;29744;49.078;12.878;2022-08-04T05:05:37;1.55;;;1.00;;
44078;SDS011;29744;49.078;12.878;2022-08-04T05:11:03;2.10;;;1.05;;
44078;SDS011;29744;49.078;12.878;2022-08-04T05:16:11;1.85;;;1.00;;
44078;SDS011;29744;49.078;12.878;2022-08-04T05:21:37;2.38;;;1.17;;
44078;SDS011;29744;49.078;12.878;2022-08-04T05:26:43;1.73;;;1.02;;
44078;SDS011;29744;49.078;12.878;2022-08-04T05:31:48;1.98;;;1.08;;
44078;SDS011;29744;49.078;12.878;2022-08-04T05:36:55;2.67;;;1.10;;
44078;SDS011;29744;49.078;12.878;2022-08-04T05:41:59;1.92;;;1.00;;
44078;SDS011;29744;49.078;12.878;2022-08-04T05:47:01;2.45;;;1.20;;
44078;SDS011;29744;49.078;12.878;2022-08-04T05:52:03;2.20;;;1.08;;
44078;SDS011;29744;49.078;12.878;2022-08-04T05:57:05;1.50;;;0.90;;
44078;SDS011;29744;49.078;12.878;2022-08-04T06:02:07;2.00;;;1.00;;
44078;SDS011;29744;49.078;12.878;2022-08-04T06:07:08;2.05;;;1.10;;
44078;SDS011;29744;49.078;12.878;2022-08-04T06:12:20;2.17;;;1.00;;
44078;SDS011;29744;49.078;12.878;2022-08-04T06:17:29;1.92;;;1.00;;
44078;SDS011;29744;49.078;12.878;2022-08-04T06:22:32;2.20;;;1.10;;
44078;SDS011;29744;49.078;12.878;2022-08-04T06:27:33;1.92;;;1.02;;
44078;SDS011;29744;49.078;12.878;2022-08-04T06:32:34;2.70;;;1.40;;
44078;SDS011;29744;49.078;12.878;2022-08-04T06:37:37;1.90;;;1.13;;
44078;SDS011;29744;49.078;12.878;2022-08-04T06:42:38;2.30;;;1.25;;
44078;SDS011;29744;49.078;12.878;2022-08-04T06:47:40;2.05;;;1.30;;
44078;SDS011;29744;49.078;12.878;2022-08-04T06:52:43;1.33;;;0.98;;
44078;SDS011;29744;49.078;12.878;2022-08-04T06:57:44;2.25;;;1.00;;
44078;SDS011;29744;49.078;12.878;2022-08-04T07:02:49;1.90;;;1.00;;
44078;SDS011;29744;49.078;12.878;2022-08-04T07:07:51;1.90;;;1.13;;
44078;SDS011;29744;49.078;12.878;2022-08-04T07:12:52;1.63;;;0.98;;
44078;SDS011;29744;49.078;12.878;2022-08-04T07:17:53;2.17;;;1.10;;
44078;SDS011;29744;49.078;12.878;2022-08-04T07:22:58;2.85;;;1.15;;
44078;SDS011;29744;49.078;12.878;2022-08-04T07:28:00;1.75;;;1.17;;
44078;SDS011;29744;49.078;12.878;2022-08-04T07:33:01;1.92;;;1.00;;
44078;SDS011;29744;49.078;12.878;2022-08-04T07:38:01;1.73;;;1.10;;
44078;SDS011;29744;49.078;12.878;2022-08-04T07:43:02;2.00;;;1.02;;
44078;SDS011;29744;49.078;12.878;2022-08-04T07:48:03;2.05;;;1.10;;
44078;SDS011;29744;49.078;12.878;2022-08-04T07:53:05;2.00;;;0.90;;
44078;SDS011;29744;49.078;12.878;2022-08-04T07:58:06;2.22;;;1.00;;
44078;SDS011;29744;49.078;12.878;2022-08-04T08:03:06;1.45;;;0.80;;
44078;SDS011;29744;49.078;12.878;2022-08-04T08:08:07;2.65;;;1.05;;
44078;SDS011;29744;49.078;12.878;2022-08-04T08:13:07;2.03;;;1.20;;
44078;SDS011;29744;49.078;12.878;2022-08-04T08:18:08;1.42;;;0.90;;
44078;SDS011;29744;49.078;12.878;2022-08-04T08:23:08;1.40;;;0.95;;
44078;SDS011;29744;49.078;12.878;2022-08-04T08:28:08;2.00;;;1.30;;
44078;SDS011;29744;49.078;12.878;2022-08-04T08:33:10;2.08;;;1.17;;
44078;SDS011;29744;49.078;12.878;2022-08-04T08:38:13;1.77;;;1.00;;
44078;SDS011;29744;49.078;12.878;2022-08-04T08:43:24;1.73;;;1.10;;
44078;SDS011;29744;49.078;12.878;2022-08-04T08:49:18;1.90;;;1.00;;
44078;SDS011;29744;49.078;12.878;2022-08-04T08:54:30;2.40;;;1.15;;
44078;SDS011;29744;49.078;12.878;2022-08-04T09:10:14;1.77;;;0.90;;
44078;SDS011;29744;49.078;12.878;2022-08-04T09:21:03;1.60;;;1.00;;
44078;SDS011;29744;49.078;12.878;2022-08-04T09:26:21;1.92;;;1.10;;
44078;SDS011;29744;49.078;12.878;2022-08-04T09:31:32;1.65;;;1.10;;
44078;SDS011;29744;49.078;12.878;2022-08-04T09:36:44;1.35;;;0.98;;
44078;SDS011;29744;49.078;12.878;2022-08-04T09:47:39;1.40;;;1.00;;
44078;SDS011;29744;49.078;12.878;2022-08-04T09:52:54;1.75;;;1.00;;
44078;SDS011;29744;49.078;12.878;2022-08-04T10:03:21;1.85;;;1.00;;
44078;SDS011;29744;49.078;12.878;2022-08-04T10:08:47;1.58;;;0.90;;
44078;SDS011;29744;49.078;12.878;2022-08-04T10:14:25;1.63;;;0.93;;
44078;SDS011;29744;49.078;12.878;2022-08-04T10:19:55;1.40;;;1.00;;
44078;SDS011;29744;49.078;12.878;2022-08-04T10:25:28;1.20;;;0.90;;
44078;SDS011;29744;49.078;12.878;2022-08-04T10:31:07;1.95;;;0.90;;
44078;SDS011;29744;49.078;12.878;2022-08-04T10:36:12;2.15;;;1.15;;
44078;SDS011;29744;49.078;12.878;2022-08-04T10:46:38;1.65;;;1.02;;
44078;SDS011;29744;49.078;12.878;2022-08-04T10:57:06;1.77;;;1.08;;
44078;SDS011;29744;49.078;12.878;2022-08-04T11:02:52;2.30;;;1.15;;
44078;SDS011;29744;49.078;12.878;2022-08-04T11:07:36;1.70;;;1.02;;
44078;SDS011;29744;49.078;12.878;2022-08-04T11:12:40;1.60;;;1.10;;
44078;SDS011;29744;49.078;12.878;2022-08-04T11:17:45;2.00;;;1.10;;
44078;SDS011;29744;49.078;12.878;2022-08-04T11:27:59;1.00;;;0.80;;
44078;SDS011;29744;49.078;12.878;2022-08-04T11:38:10;1.67;;;0.90;;
44078;SDS011;29744;49.078;12.878;2022-08-04T11:43:31;2.05;;;1.08;;
44078;SDS011;29744;49.078;12.878;2022-08-04T11:48:36;1.73;;;0.93;;
44078;SDS011;29744;49.078;12.878;2022-08-04T11:53:40;1.70;;;1.02;;
44078;SDS011;29744;49.078;12.878;2022-08-04T11:58:42;1.50;;;0.82;;
44078;SDS011;29744;49.078;12.878;2022-08-04T12:14:23;1.60;;;1.00;;
44078;SDS011;29744;49.078;12.878;2022-08-04T12:25:05;1.70;;;1.08;;
44078;SDS011;29744;49.078;12.878;2022-08-04T12:30:08;1.13;;;0.80;;
44078;SDS011;29744;49.078;12.878;2022-08-04T12:35:19;1.40;;;0.85;;
44078;SDS011;29744;49.078;12.878;2022-08-04T12:40:22;1.73;;;1.10;;
44078;SDS011;29744;49.078;12.878;2022-08-04T12:45:26;1.38;;;0.95;;
44078;SDS011;29744;49.078;12.878;2022-08-04T12:50:28;1.42;;;0.85;;
44078;SDS011;29744;49.078;12.878;2022-08-04T12:55:30;1.60;;;1.00;;
44078;SDS011;29744;49.078;12.878;2022-08-04T13:00:33;1.92;;;1.05;;
44078;SDS011;29744;49.078;12.878;2022-08-04T13:05:34;1.52;;;1.05;;
44078;SDS011;29744;49.078;12.878;2022-08-04T13:10:37;1.58;;;0.98;;
44078;SDS011;29744;49.078;12.878;2022-08-04T13:15:38;1.63;;;1.00;;
44078;SDS011;29744;49.078;12.878;2022-08-04T13:20:39;1.77;;;1.10;;
44078;SDS011;29744;49.078;12.878;2022-08-04T13:25:41;2.25;;;1.13;;
44078;SDS011;29744;49.078;12.878;2022-08-04T13:30:47;1.83;;;1.13;;
44078;SDS011;29744;49.078;12.878;2022-08-04T13:35:53;1.63;;;0.90;;
44078;SDS011;29744;49.078;12.878;2022-08-04T13:40:56;1.48;;;0.98;;
44078;SDS011;29744;49.078;12.878;2022-08-04T13:46:07;1.83;;;1.05;;
44078;SDS011;29744;49.078;12.878;2022-08-04T13:51:14;1.40;;;0.73;;
44078;SDS011;29744;49.078;12.878;2022-08-04T13:56:17;1.97;;;1.00;;
44078;SDS011;29744;49.078;12.878;2022-08-04T14:01:18;1.52;;;1.00;;
44078;SDS011;29744;49.078;12.878;2022-08-04T14:06:23;1.70;;;1.00;;
44078;SDS011;29744;49.078;12.878;2022-08-04T14:16:35;1.40;;;0.90;;
44078;SDS011;29744;49.078;12.878;2022-08-04T14:21:35;1.35;;;1.00;;
44078;SDS011;29744;49.078;12.878;2022-08-04T14:26:35;1.30;;;0.80;;
44078;SDS011;29744;49.078;12.878;2022-08-04T14:31:36;2.03;;;1.17;;
44078;SDS011;29744;49.078;12.878;2022-08-04T14:36:40;1.42;;;1.08;;
44078;SDS011;29744;49.078;12.878;2022-08-04T14:41:43;2.08;;;1.15;;
44078;SDS011;29744;49.078;12.878;2022-08-04T14:46:48;2.53;;;1.33;;
44078;SDS011;29744;49.078;12.878;2022-08-04T14:51:52;1.67;;;1.23;;
44078;SDS011;29744;49.078;12.878;2022-08-04T14:56:57;2.10;;;1.40;;
44078;SDS011;29744;49.078;12.878;2022-08-04T15:01:59;2.35;;;1.45;;
44078;SDS011;29744;49.078;12.878;2022-08-04T15:07:00;2.60;;;1.25;;
44078;SDS011;29744;49.078;12.878;2022-08-04T15:12:01;3.65;;;1.42;;
44078;SDS011;29744;49.078;12.878;2022-08-04T15:17:03;2.63;;;1.55;;
44078;SDS011;29744;49.078;12.878;2022-08-04T15:22:05;2.17;;;1.42;;
44078;SDS011;29744;49.078;12.878;2022-08-04T15:27:06;3.28;;;1.67;;
44078;SDS011;29744;49.078;12.878;2022-08-04T15:32:08;2.45;;;1.50;;
44078;SDS011;29744;49.078;12.878;2022-08-04T15:37:09;2.92;;;1.42;;
44078;SDS011;29744;49.078;12.878;2022-08-04T15:42:14;2.05;;;1.33;;
44078;SDS011;29744;49.078;12.878;2022-08-04T15:47:21;2.30;;;1.40;;
44078;SDS011;29744;49.078;12.878;2022-08-04T15:52:21;1.95;;;1.30;;
44078;SDS011;29744;49.078;12.878;2022-08-04T16:03:03;2.92;;;1.50;;
44078;SDS011;29744;49.078;12.878;2022-08-04T16:24:07;2.72;;;1.85;;
44078;SDS011;29744;49.078;12.878;2022-08-04T16:34:22;5.30;;;2.03;;
44078;SDS011;29744;49.078;12.878;2022-08-04T16:39:26;7.10;;;2.30;;
44078;SDS011;29744;49.078;12.878;2022-08-04T16:44:30;4.85;;;2.25;;
44078;SDS011;29744;49.078;12.878;2022-08-04T16:49:33;4.28;;;2.08;;
44078;SDS011;29744;49.078;12.878;2022-08-04T16:54:34;3.78;;;2.50;;
44078;SDS011;29744;49.078;12.878;2022-08-04T16:59:36;4.53;;;2.30;;
44078;SDS011;29744;49.078;12.878;2022-08-04T17:04:36;4.65;;;2.30;;
44078;SDS011;29744;49.078;12.878;2022-08-04T17:09:37;4.07;;;2.28;;
44078;SDS011;29744;49.078;12.878;2022-08-04T17:14:48;4.43;;;2.20;;
44078;SDS011;29744;49.078;12.878;2022-08-04T17:19:52;4.07;;;2.10;;
44078;SDS011;29744;49.078;12.878;2022-08-04T17:24:52;4.60;;;2.30;;
44078;SDS011;29744;49.078;12.878;2022-08-04T17:29:53;4.32;;;2.20;;
44078;SDS011;29744;49.078;12.878;2022-08-04T17:34:54;4.10;;;2.13;;
44078;SDS011;29744;49.078;12.878;2022-08-04T17:40:07;3.92;;;2.22;;
44078;SDS011;29744;49.078;12.878;2022-08-04T17:45:11;4.93;;;2.30;;
44078;SDS011;29744;49.078;12.878;2022-08-04T17:50:27;4.00;;;2.72;;
44078;SDS011;29744;49.078;12.878;2022-08-04T17:55:37;4.78;;;2.53;;
44078;SDS011;29744;49.078;12.878;2022-08-04T18:00:38;5.50;;;2.35;;
44078;SDS011;29744;49.078;12.878;2022-08-04T18:05:38;4.22;;;2.63;;
44078;SDS011;29744;49.078;12.878;2022-08-04T18:10:39;4.37;;;2.40;;
44078;SDS011;29744;49.078;12.878;2022-08-04T18:15:41;3.90;;;2.22;;
44078;SDS011;29744;49.078;12.878;2022-08-04T18:20:41;4.07;;;2.28;;
44078;SDS011;29744;49.078;12.878;2022-08-04T18:25:45;4.88;;;2.17;;
44078;SDS011;29744;49.078;12.878;2022-08-04T18:30:48;3.85;;;2.35;;
44078;SDS011;29744;49.078;12.878;2022-08-04T18:35:48;4.32;;;2.22;;
44078;SDS011;29744;49.078;12.878;2022-08-04T18:40:49;6.10;;;2.60;;
44078;SDS011;29744;49.078;12.878;2022-08-04T18:45:50;4.15;;;2.15;;
44078;SDS011;29744;49.078;12.878;2022-08-04T18:50:50;4.22;;;2.22;;
44078;SDS011;29744;49.078;12.878;2022-08-04T18:55:52;4.47;;;2.40;;
44078;SDS011;29744;49.078;12.878;2022-08-04T19:00:52;3.60;;;2.00;;
44078;SDS011;29744;49.078;12.878;2022-08-04T19:05:54;3.85;;;2.22;;
44078;SDS011;29744;49.078;12.878;2022-08-04T19:10:55;4.50;;;2.25;;
44078;SDS011;29744;49.078;12.878;2022-08-04T19:15:55;5.60;;;2.25;;
44078;SDS011;29744;49.078;12.878;2022-08-04T19:20:57;4.97;;;2.55;;
44078;SDS011;29744;49.078;12.878;2022-08-04T19:25:58;4.93;;;2.20;;
44078;SDS011;29744;49.078;12.878;2022-08-04T19:30:59;3.95;;;2.28;;
44078;SDS011;29744;49.078;12.878;2022-08-04T19:36:00;4.82;;;2.30;;
44078;SDS011;29744;49.078;12.878;2022-08-04T19:41:00;5.93;;;2.53;;
44078;SDS011;29744;49.078;12.878;2022-08-04T19:46:01;4.25;;;2.33;;
44078;SDS011;29744;49.078;12.878;2022-08-04T19:51:02;5.75;;;2.20;;
44078;SDS011;29744;49.078;12.878;2022-08-04T19:56:02;6.55;;;2.60;;
44078;SDS011;29744;49.078;12.878;2022-08-04T20:01:03;6.78;;;2.40;;
44078;SDS011;29744;49.078;12.878;2022-08-04T20:06:03;4.70;;;2.47;;
44078;SDS011;29744;49.078;12.878;2022-08-04T20:11:03;4.45;;;2.30;;
44078;SDS011;29744;49.078;12.878;2022-08-04T20:16:07;6.45;;;2.50;;
44078;SDS011;29744;49.078;12.878;2022-08-04T20:21:07;3.88;;;2.25;;
44078;SDS011;29744;49.078;12.878;2022-08-04T20:26:08;4.80;;;2.75;;
44078;SDS011;29744;49.078;12.878;2022-08-04T20:31:08;4.55;;;2.28;;
44078;SDS011;29744;49.078;12.878;2022-08-04T20:36:09;6.57;;;2.70;;
44078;SDS011;29744;49.078;12.878;2022-08-04T20:41:09;6.03;;;2.45;;
44078;SDS011;29744;49.078;12.878;2022-08-04T20:46:09;4.80;;;2.22;;
44078;SDS011;29744;49.078;12.878;2022-08-04T20:51:10;6.00;;;2.60;;
44078;SDS011;29744;49.078;12.878;2022-08-04T20:56:16;4.10;;;2.30;;
44078;SDS011;29744;49.078;12.878;2022-08-04T21:01:17;6.63;;;2.50;;
44078;SDS011;29744;49.078;12.878;2022-08-04T21:06:17;5.85;;;2.30;;
44078;SDS011;29744;49.078;12.878;2022-08-04T21:11:17;4.78;;;2.30;;
44078;SDS011;29744;49.078;12.878;2022-08-04T21:16:18;4.90;;;2.65;;
44078;SDS011;29744;49.078;12.878;2022-08-04T21:21:18;4.10;;;2.28;;
44078;SDS011;29744;49.078;12.878;2022-08-04T21:26:22;5.75;;;2.58;;
44078;SDS011;29744;49.078;12.878;2022-08-04T21:31:23;5.47;;;2.33;;
44078;SDS011;29744;49.078;12.878;2022-08-04T21:36:23;5.00;;;2.72;;
44078;SDS011;29744;49.078;12.878;2022-08-04T21:41:24;6.30;;;2.50;;
44078;SDS011;29744;49.078;12.878;2022-08-04T21:46:24;4.90;;;2.47;;
44078;SDS011;29744;49.078;12.878;2022-08-04T21:51:26;4.40;;;2.10;;
44078;SDS011;29744;49.078;12.878;2022-08-04T21:56:28;4.05;;;2.03;;
44078;SDS011;29744;49.078;12.878;2022-08-04T22:01:28;5.88;;;2.63;;
44078;SDS011;29744;49.078;12.878;2022-08-04T22:06:29;4.32;;;2.35;;
44078;SDS011;29744;49.078;12.878;2022-08-04T22:11:32;5.10;;;2.28;;
44078;SDS011;29744;49.078;12.878;2022-08-04T22:16:35;4.80;;;2.90;;
44078;SDS011;29744;49.078;12.878;2022-08-04T22:21:35;4.45;;;2.35;;
44078;SDS011;29744;49.078;12.878;2022-08-04T22:26:35;3.38;;;2.00;;
44078;SDS011;29744;49.078;12.878;2022-08-04T22:31:36;4.38;;;2.28;;
44078;SDS011;29744;49.078;12.878;2022-08-04T22:36:36;4.20;;;2.60;;
44078;SDS011;29744;49.078;12.878;2022-08-04T22:41:36;4.95;;;2.58;;
44078;SDS011;29744;49.078;12.878;2022-08-04T22:46:37;4.32;;;2.40;;
44078;SDS011;29744;49.078;12.878;2022-08-04T22:51:37;4.70;;;2.50;;
44078;SDS011;29744;49.078;12.878;2022-08-04T22:56:37;5.70;;;2.38;;
44078;SDS011;29744;49.078;12.878;2022-08-04T23:01:38;4.60;;;2.50;;
44078;SDS011;29744;49.078;12.878;2022-08-04T23:06:39;3.13;;;2.22;;
44078;SDS011;29744;49.078;12.878;2022-08-04T23:11:39;3.85;;;2.33;;
44078;SDS011;29744;49.078;12.878;2022-08-04T23:16:40;4.15;;;2.40;;
44078;SDS011;29744;49.078;12.878;2022-08-04T23:21:40;3.70;;;2.30;;
44078;SDS011;29744;49.078;12.878;2022-08-04T23:26:40;3.63;;;1.90;;
44078;SDS011;29744;49.078;12.878;2022-08-04T23:31:40;3.70;;;2.17;;
44078;SDS011;29744;49.078;12.878;2022-08-04T23:36:41;3.08;;;2.17;;
44078;SDS011;29744;49.078;12.878;2022-08-04T23:41:41;4.50;;;2.35;;
44078;SDS011;29744;49.078;12.878;2022-08-04T23:46:41;3.53;;;2.30;;
44078;SDS011;29744;49.078;12.878;2022-08-04T23:51:42;4.60;;;2.30;;
44078;SDS011;29744;49.078;12.878;2022-08-04T23:56:42;4.15;;;2.20;;
